Latest Coastal Weather Observations for Derby

IDW60701

Issued at 8:42 pm WST Wednesday 4 March 2015 (issued every 10 minutes, with the page automatically refreshed every 10 minutes)

About coastal observations | Map of coastal stations | Coastal observations for WA | Marine services | Other Formats
Station Details ID: 003032 Name: DERBY AERO Lat: -17.37 Lon: 123.66 Height: 6.2 m
Data from the previous 72 hours. | See also: Recent months at Derby
Date/Time
WST
Temp

°C
Wind Pressure Rain
since 9am
mm
Weather Cloud Vis
km
Sea
Height
m
Swell
Dir
 
Speed
knots
Gust
knots
hPa Trend Height
m
Period
s
Dir
04/08:30pm 27.2 NNE 2 4 1008.9 - 0.2 - - - - - - -
04/08:00pm 27.3 CALM 0 0 1008.4 - 0.2 - - - - - - -
04/07:30pm 27.3 N 4 5 1008.2 - 0.2 - - - - - - -
04/07:00pm 27.5 NNE 4 5 1007.9 - 0.2 - - - - - - -
04/06:30pm 27.6 NNE 4 5 1007.1 - 0.2 - - - - - - -
04/06:00pm 27.9 N 4 5 1007.1 - 0.2 - - - - - - -
04/05:30pm 27.9 NNE 3 5 1006.4 - 0.2 - - - - - - -
04/05:00pm 27.9 N 3 6 1006.4 - 0.2 - - - - - - -
04/04:30pm 28.0 N 8 11 1006.4 - 0.2 - - - - - - -
04/04:00pm 28.7 N 8 10 1006.5 - 0.2 - - - - - - -
04/03:30pm 29.2 NNW 11 14 1006.4 - 0.2 - - - - - - -
04/03:00pm 30.2 NNW 9 12 1005.9 - 0.2 - - - - - - -
04/02:30pm 32.0 NNW 6 9 1005.5 - 0.2 - - - - - - -
04/02:00pm 31.8 NW 6 8 1005.6 - 0.2 - - - - - - -
04/01:30pm 30.0 NNW 9 14 1006.4 - 0.0 - - - - - - -
04/01:00pm 31.5 NW 9 14 1006.5 - 0.0 - - - - - - -
04/12:30pm 32.2 WNW 6 10 1006.9 - 0.0 - - - - - - -
04/12:00pm 31.9 W 7 11 1007.5 - 0.0 - - - - - - -
04/11:30am 32.2 NW 4 7 1007.8 - 0.0 - - - - - - -
04/11:00am 32.1 WNW 5 7 1008.0 - 0.0 - - - - - - -
04/10:30am 31.4 S 4 7 1007.9 - 0.0 - - - - - - -
04/10:00am 29.9 SW 6 9 1008.6 - 0.0 - - - - - - -
04/09:30am 29.5 WSW 5 7 1008.6 - 0.0 - - - - - - -
04/09:00am 28.3 W 5 7 1008.6 - 1.4 - - - - - - -
04/08:30am 28.4 SW 4 7 1008.5 - 1.4 - - - - - - -
04/08:00am 28.3 S 6 8 1008.2 - 1.4 - - - - - - -
04/07:30am 27.3 WSW 5 6 1008.0 - 1.4 - - - - - - -
04/07:00am 26.7 ESE 4 5 1007.5 - 1.4 - - - - - - -
04/06:30am 26.0 CALM 0 3 1007.3 - 1.4 - - - - - - -
04/06:00am 25.6 S 4 6 1007.0 - 1.4 - - - - - - -
04/05:30am 25.4 ESE 4 5 1006.6 - 1.4 - - - - - - -
04/05:00am 25.4 ESE 4 5 1006.5 - 1.4 - - - - - - -
04/04:30am 25.5 SE 2 5 1006.2 - 1.4 - - - - - - -
04/04:00am 25.6 CALM 0 0 1005.7 - 1.4 - - - - - - -
04/03:30am 25.9 CALM 0 0 1005.4 - 1.4 - - - - - - -
04/03:00am 25.9 CALM 0 3 1005.3 - 1.4 - - - - - - -
04/02:30am 25.8 NE 4 6 1004.8 - 1.4 - - - - - - -
04/02:00am 25.9 NE 4 6 1004.9 - 1.4 - - - - - - -
04/01:30am 26.0 NNE 4 5 1005.2 - 1.4 - - - - - - -
04/01:00am 25.9 NNE 5 6 1005.5 - 1.4 - - - - - - -
04/12:30am 25.9 NNE 5 6 1005.8 - 1.4 - - - - - - -
04/12:00am 26.0 N 2 4 1006.1 - 1.4 - - - - - - -
 
Date/Time
WST
Temp

°C
Wind Pressure Rain
since 9am
mm
Weather Cloud Vis
km
Sea
Height
m
Swell
Dir
 
Speed
knots
Gust
knots
hPa Trend Height
m
Period
s
Dir
03/11:30pm 26.3 N 1 3 1006.5 - 1.4 - - - - - - -
03/11:00pm 26.3 CALM 0 2 1006.9 - 1.4 - - - - - - -
03/10:30pm 26.2 SSW 3 3 1006.8 - 1.4 - - - - - - -
03/10:00pm 26.2 WSW 4 5 1007.1 - 1.4 - - - - - - -
03/09:30pm 26.3 SW 5 6 1006.9 - 1.4 - - - - - - -
03/09:00pm 26.6 SSW 6 8 1007.1 - 1.4 - - - - - - -
03/08:30pm 26.9 SW 5 7 1006.8 - 1.4 - - - - - - -
03/08:00pm 26.8 WNW 7 9 1006.5 - 1.4 - - - - - - -
03/07:30pm 27.2 W 7 9 1006.4 - 1.4 - - - - - - -
03/07:00pm 27.5 WSW 8 10 1006.5 - 1.4 - - - - - - -
03/06:30pm 27.8 W 6 6 1006.1 - 1.4 - - - - - - -
03/06:00pm 27.8 WNW 5 7 1006.1 - 1.4 - - - - - - -
03/05:30pm 28.0 WNW 6 8 1005.6 - 1.4 - - - - - - -
03/05:00pm 28.0 NW 8 10 1005.6 - 1.4 - - - - - - -
03/04:30pm 27.9 NW 7 10 1005.6 - 1.4 - - - - - - -
03/04:00pm 28.4 NW 8 10 1005.3 - 1.4 - - - - - - -
03/03:30pm 28.2 N 7 9 1005.3 - 1.4 - - - - - - -
03/03:00pm 27.9 N 9 11 1005.5 - 1.4 - - - - - - -
03/02:30pm 27.4 N 10 12 1005.9 - 1.4 - - - - - - -
03/02:00pm 27.9 NNE 6 7 1006.0 - 1.4 - - - - - - -
03/01:30pm 28.1 SSE 4 6 1005.7 - 1.4 - - - - - - -
03/01:00pm 27.2 S 4 6 1005.7 - 1.4 - - - - - - -
03/12:30pm 25.5 N 7 9 1006.5 - 1.4 - - - - - - -
03/12:03pm 26.2 NE 15 28 1008.4 - 0.4 - - - - - - -
03/12:00pm 27.6 NE 12 25 1008.3 - 0.0 - - - - - - -
03/11:30am 29.8 NE 11 16 1008.3 - 0.0 - - - - - - -
03/11:00am 31.0 E 8 12 1008.1 - 0.0 - - - - - - -
03/10:30am 31.2 ESE 9 12 1008.0 - 0.0 - - - - - - -
03/10:00am 31.2 SE 8 11 1007.9 - 0.0 - - - - - - -
03/09:30am 31.2 SE 8 10 1008.0 - 0.0 - - - - - - -
03/09:00am 30.8 SE 9 11 1008.1 - 0.0 - - - - - - -
03/08:30am 30.6 SSE 9 12 1007.7 - 0.0 - - - - - - -
03/08:00am 29.4 SSE 10 12 1007.7 - 0.0 - - - - - - -
03/07:30am 28.7 S 8 11 1007.4 - 0.0 - - - - - - -
03/07:00am 27.8 SSW 6 7 1007.4 - 0.0 - - - - - - -
03/06:30am 27.1 SSW 6 7 1006.9 - 0.0 - - - - - - -
03/06:00am 26.7 SW 4 5 1007.0 - 0.0 - - - - - - -
03/05:30am 26.8 SSW 5 6 1006.6 - 0.0 - - - - - - -
03/05:00am 26.9 S 6 8 1006.1 - 0.0 - - - - - - -
03/04:30am 27.0 SSW 9 11 1005.8 - 0.0 - - - - - - -
03/04:00am 27.1 SSW 8 10 1005.9 - 0.0 - - - - - - -
03/03:30am 27.2 SSW 7 8 1005.8 - 0.0 - - - - - - -
03/03:00am 27.2 S 5 7 1005.8 - 0.0 - - - - - - -
03/02:30am 27.0 S 3 4 1006.0 - 0.0 - - - - - - -
03/02:00am 27.2 SSW 5 7 1005.8 - 0.0 - - - - - - -
03/01:30am 27.4 SW 6 8 1005.8 - 0.0 - - - - - - -
03/01:00am 27.3 SW 5 7 1006.0 - 0.0 - - - - - - -
03/12:30am 27.4 WSW 3 6 1006.5 - 0.0 - - - - - - -
03/12:00am 27.6 SW 4 5 1006.8 - 0.0 - - - - - - -
 
Date/Time
WST
Temp

°C
Wind Pressure Rain
since 9am
mm
Weather Cloud Vis
km
Sea
Height
m
Swell
Dir
 
Speed
knots
Gust
knots
hPa Trend Height
m
Period
s
Dir
02/11:30pm 27.7 SW 4 5 1007.1 - 0.0 - - - - - - -
02/11:00pm 28.0 SW 4 5 1007.5 - 0.0 - - - - - - -
02/10:30pm 28.3 SW 3 4 1007.7 - 0.0 - - - - - - -
02/10:00pm 28.3 WSW 3 4 1007.5 - 0.0 - - - - - - -
02/09:30pm 28.4 WSW 5 6 1007.4 - 0.0 - - - - - - -
02/09:00pm 28.7 WSW 6 7 1006.9 - 0.0 - - - - - - -
02/08:30pm 29.0 WSW 6 8 1006.2 - 0.0 - - - - - - -
02/08:00pm 29.5 W 7 8 1005.7 - 0.0 - - - - - - -
02/07:30pm 29.5 WNW 7 9 1005.2 - 0.0 - - - - - - -
02/07:00pm 30.1 WNW 9 12 1004.8 - 0.0 - - - - - - -
02/06:30pm 30.4 WNW 11 13 1004.6 - 0.0 - - - - - - -
02/06:00pm 30.7 WNW 11 15 1003.9 - 0.0 - - - - - - -
02/05:30pm 32.5 NW 10 14 1003.6 - 0.0 - - - - - - -
02/05:00pm 34.1 WSW 5 7 1003.4 - 0.0 - - - - - - -
02/04:30pm 34.3 SW 4 8 1003.3 - 0.0 - - - - - - -
02/04:00pm 33.4 SSW 4 6 1003.2 - 0.0 - - - - - - -
02/03:30pm 34.0 S 4 6 1003.1 - 0.0 - - - - - - -
02/03:00pm 34.0 SSW 4 8 1003.3 - 0.0 - - - - - - -
02/02:30pm 33.6 SSE 4 7 1003.4 - 0.0 - - - - - - -
02/02:00pm 34.0 S 5 8 1003.7 - 0.0 - - - - - - -
02/01:30pm 33.7 ESE 5 9 1004.5 - 0.0 - - - - - - -
02/01:00pm 32.7 SE 7 10 1005.1 - 0.0 - - - - - - -
02/12:30pm 32.7 SE 8 12 1005.7 - 0.0 - - - - - - -
02/12:00pm 32.1 SE 7 11 1006.4 - 0.0 - - - - - - -
02/11:30am 31.7 SE 8 11 1006.9 - 0.0 - - - - - - -
02/11:00am 32.1 S 7 9 1007.6 - 0.0 - - - - - - -
02/10:30am 30.8 SE 9 12 1008.1 - 0.0 - - - - - - -
02/10:00am 30.6 SE 5 8 1008.0 - 0.0 - - - - - - -
02/09:30am 29.3 SE 5 8 1008.2 - 0.0 - - - - - - -
02/09:00am 28.7 SSW 5 6 1008.5 - 1.4 - - - - - - -
02/08:30am 28.1 SW 3 5 1008.0 - 1.4 - - - - - - -
02/08:00am 27.5 ESE 3 4 1007.8 - 1.4 - - - - - - -
02/07:30am 26.9 SSE 5 6 1007.6 - 1.4 - - - - - - -
02/07:00am 26.4 S 3 4 1007.5 - 1.4 - - - - - - -
02/06:30am 26.1 E 3 4 1007.5 - 1.4 - - - - - - -
02/06:00am 26.1 S 4 5 1007.3 - 1.4 - - - - - - -
02/05:30am 26.2 E 5 6 1007.3 - 1.4 - - - - - - -
02/05:00am 26.2 E 5 6 1006.9 - 1.4 - - - - - - -
02/04:30am 26.3 CALM 0 0 1006.3 - 1.4 - - - - - - -
02/04:00am 26.4 SE 1 3 1005.8 - 1.4 - - - - - - -
02/03:30am 26.4 E 4 6 1005.9 - 1.4 - - - - - - -
02/03:00am 26.6 SSE 2 5 1005.8 - 1.4 - - - - - - -
02/02:30am 26.6 SSW 5 6 1005.7 - 1.4 - - - - - - -
02/02:00am 26.5 WSW 3 4 1005.6 - 1.4 - - - - - - -
02/01:30am 26.5 NNW 4 6 1006.3 - 1.4 - - - - - - -
02/01:00am 26.4 NNE 4 5 1006.6 - 1.4 - - - - - - -
02/12:30am 26.5 SSE 5 7 1006.8 - 1.4 - - - - - - -
02/12:00am 26.6 NE 1 4 1007.3 - 1.4 Recent precip. - - - - - -
 
Date/Time
WST
Temp

°C
Wind Pressure Rain
since 9am
mm
Weather Cloud Vis
km
Sea
Height
m
Swell
Dir
 
Speed
knots
Gust
knots
hPa Trend Height
m
Period
s
Dir
01/11:30pm 26.6 NE 3 5 1007.2 - 1.4 - - - - - - -
01/11:00pm 26.6 SSW 5 7 1006.9 - 1.2 - - - - - - -
01/10:30pm 26.6 ENE 6 9 1007.7 - 1.2 - - - - - - -
01/10:00pm 27.0 ENE 7 9 1008.2 - 1.0 - - - - - - -
01/09:30pm 27.3 ENE 8 11 1008.7 - 1.0 - - - - - - -
01/09:00pm 27.9 ENE 7 10 1008.4 - 1.0 - - - - - - -

Other Formats:

Comma delimited format used in spreadsheet applications
http://www.bom.gov.au/fwo/IDW60701/IDW60701.95205.axf

JavaScript Object Notation format (JSON) in row-major order
http://www.bom.gov.au/fwo/IDW60701/IDW60701.95205.json